sensor_id;sensor_type;location;lat;lon;timestamp;pressure;altitude;pressure_sealevel;temperature
79495;BMP180;68951;53.130;18.104;2023-11-19T00:00:07;101620.40;;;
79495;BMP180;68951;53.130;18.104;2023-11-19T00:02:58;101617.20;;;
79495;BMP180;68951;53.130;18.104;2023-11-19T00:05:25;101615.80;;;
79495;BMP180;68951;53.130;18.104;2023-11-19T00:07:54;101613.80;;;
79495;BMP180;68951;53.130;18.104;2023-11-19T00:10:20;101604.80;;;
79495;BMP180;68951;53.130;18.104;2023-11-19T00:12:49;101600.80;;;
79495;BMP180;68951;53.130;18.104;2023-11-19T00:15:17;101592.40;;;
79495;BMP180;68951;53.130;18.104;2023-11-19T00:17:46;101584.00;;;
79495;BMP180;68951;53.130;18.104;2023-11-19T00:20:18;101582.80;;;
79495;BMP180;68951;53.130;18.104;2023-11-19T00:22:45;101580.20;;;
79495;BMP180;68951;53.130;18.104;2023-11-19T00:25:18;101577.00;;;
79495;BMP180;68951;53.130;18.104;2023-11-19T00:27:45;101575.40;;;
79495;BMP180;68951;53.130;18.104;2023-11-19T00:30:13;101574.60;;;
79495;BMP180;68951;53.130;18.104;2023-11-19T00:32:41;101582.80;;;
79495;BMP180;68951;53.130;18.104;2023-11-19T00:35:09;101578.20;;;
79495;BMP180;68951;53.130;18.104;2023-11-19T00:37:40;101577.40;;;
79495;BMP180;68951;53.130;18.104;2023-11-19T00:40:09;101578.40;;;
79495;BMP180;68951;53.130;18.104;2023-11-19T00:42:37;101570.80;;;
79495;BMP180;68951;53.130;18.104;2023-11-19T00:45:04;101565.40;;;
79495;BMP180;68951;53.130;18.104;2023-11-19T00:47:35;101556.80;;;
79495;BMP180;68951;53.130;18.104;2023-11-19T00:50:03;101555.00;;;
79495;BMP180;68951;53.130;18.104;2023-11-19T00:52:30;101548.60;;;
79495;BMP180;68951;53.130;18.104;2023-11-19T00:54:57;101534.40;;;
79495;BMP180;68951;53.130;18.104;2023-11-19T00:57:24;101528.60;;;
79495;BMP180;68951;53.130;18.104;2023-11-19T00:59:50;101525.60;;;
79495;BMP180;68951;53.130;18.104;2023-11-19T01:02:17;101523.40;;;
79495;BMP180;68951;53.130;18.104;2023-11-19T01:04:44;101523.20;;;
79495;BMP180;68951;53.130;18.104;2023-11-19T01:07:11;101522.60;;;
79495;BMP180;68951;53.130;18.104;2023-11-19T01:09:42;101518.40;;;
79495;BMP180;68951;53.130;18.104;2023-11-19T01:12:09;101518.00;;;
79495;BMP180;68951;53.130;18.104;2023-11-19T01:14:37;101517.00;;;
79495;BMP180;68951;53.130;18.104;2023-11-19T01:17:03;101510.80;;;
79495;BMP180;68951;53.130;18.104;2023-11-19T01:19:31;101503.60;;;
79495;BMP180;68951;53.130;18.104;2023-11-19T01:21:58;101496.40;;;
79495;BMP180;68951;53.130;18.104;2023-11-19T01:24:24;101489.40;;;
79495;BMP180;68951;53.130;18.104;2023-11-19T01:26:55;101488.20;;;
79495;BMP180;68951;53.130;18.104;2023-11-19T01:29:21;101489.00;;;
79495;BMP180;68951;53.130;18.104;2023-11-19T01:31:48;101492.80;;;
79495;BMP180;68951;53.130;18.104;2023-11-19T01:34:17;101498.00;;;
79495;BMP180;68951;53.130;18.104;2023-11-19T01:36:44;101490.80;;;
79495;BMP180;68951;53.130;18.104;2023-11-19T01:39:12;101490.20;;;
79495;BMP180;68951;53.130;18.104;2023-11-19T01:41:42;101491.80;;;
79495;BMP180;68951;53.130;18.104;2023-11-19T01:44:09;101481.60;;;
79495;BMP180;68951;53.130;18.104;2023-11-19T01:46:42;101477.00;;;
79495;BMP180;68951;53.130;18.104;2023-11-19T01:49:09;101466.80;;;
79495;BMP180;68951;53.130;18.104;2023-11-19T01:51:36;101455.00;;;
79495;BMP180;68951;53.130;18.104;2023-11-19T01:54:03;101446.20;;;
79495;BMP180;68951;53.130;18.104;2023-11-19T01:56:31;101440.60;;;
79495;BMP180;68951;53.130;18.104;2023-11-19T01:58:58;101434.60;;;
79495;BMP180;68951;53.130;18.104;2023-11-19T02:01:26;101423.60;;;
79495;BMP180;68951;53.130;18.104;2023-11-19T02:03:53;101414.60;;;
79495;BMP180;68951;53.130;18.104;2023-11-19T02:06:20;101407.40;;;
79495;BMP180;68951;53.130;18.104;2023-11-19T02:08:47;101406.60;;;
79495;BMP180;68951;53.130;18.104;2023-11-19T02:11:13;101399.60;;;
79495;BMP180;68951;53.130;18.104;2023-11-19T02:13:40;101403.40;;;
79495;BMP180;68951;53.130;18.104;2023-11-19T02:16:08;101402.20;;;
79495;BMP180;68951;53.130;18.104;2023-11-19T02:18:37;101402.60;;;
79495;BMP180;68951;53.130;18.104;2023-11-19T02:21:04;101403.60;;;
79495;BMP180;68951;53.130;18.104;2023-11-19T02:23:32;101404.20;;;
79495;BMP180;68951;53.130;18.104;2023-11-19T02:26:28;101399.40;;;
79495;BMP180;68951;53.130;18.104;2023-11-19T02:28:57;101388.40;;;
79495;BMP180;68951;53.130;18.104;2023-11-19T02:31:24;101367.80;;;
79495;BMP180;68951;53.130;18.104;2023-11-19T02:33:51;101359.40;;;
79495;BMP180;68951;53.130;18.104;2023-11-19T02:36:18;101358.20;;;
79495;BMP180;68951;53.130;18.104;2023-11-19T02:38:45;101364.40;;;
79495;BMP180;68951;53.130;18.104;2023-11-19T02:41:11;101366.20;;;
79495;BMP180;68951;53.130;18.104;2023-11-19T02:43:38;101353.60;;;
79495;BMP180;68951;53.130;18.104;2023-11-19T02:46:06;101343.80;;;
79495;BMP180;68951;53.130;18.104;2023-11-19T02:48:34;101335.80;;;
79495;BMP180;68951;53.130;18.104;2023-11-19T02:51:05;101332.60;;;
79495;BMP180;68951;53.130;18.104;2023-11-19T02:53:36;101323.60;;;
79495;BMP180;68951;53.130;18.104;2023-11-19T02:56:07;101317.60;;;
79495;BMP180;68951;53.130;18.104;2023-11-19T02:58:52;101318.00;;;
79495;BMP180;68951;53.130;18.104;2023-11-19T03:01:25;101314.40;;;
79495;BMP180;68951;53.130;18.104;2023-11-19T03:04:02;101305.40;;;
79495;BMP180;68951;53.130;18.104;2023-11-19T03:06:30;101303.00;;;
79495;BMP180;68951;53.130;18.104;2023-11-19T03:08:57;101300.40;;;
79495;BMP180;68951;53.130;18.104;2023-11-19T03:11:24;101300.40;;;
79495;BMP180;68951;53.130;18.104;2023-11-19T03:13:51;101296.40;;;
79495;BMP180;68951;53.130;18.104;2023-11-19T03:16:17;101297.20;;;
79495;BMP180;68951;53.130;18.104;2023-11-19T03:18:44;101289.40;;;
79495;BMP180;68951;53.130;18.104;2023-11-19T03:21:11;101287.20;;;
79495;BMP180;68951;53.130;18.104;2023-11-19T03:23:39;101278.20;;;
79495;BMP180;68951;53.130;18.104;2023-11-19T03:26:06;101270.00;;;
79495;BMP180;68951;53.130;18.104;2023-11-19T03:28:34;101260.40;;;
79495;BMP180;68951;53.130;18.104;2023-11-19T03:31:05;101252.60;;;
79495;BMP180;68951;53.130;18.104;2023-11-19T03:33:34;101238.40;;;
79495;BMP180;68951;53.130;18.104;2023-11-19T03:36:01;101224.80;;;
79495;BMP180;68951;53.130;18.104;2023-11-19T03:38:28;101214.00;;;
79495;BMP180;68951;53.130;18.104;2023-11-19T03:40:55;101204.20;;;
79495;BMP180;68951;53.130;18.104;2023-11-19T03:43:21;101209.00;;;
79495;BMP180;68951;53.130;18.104;2023-11-19T03:45:48;101201.60;;;
79495;BMP180;68951;53.130;18.104;2023-11-19T03:48:15;101198.60;;;
79495;BMP180;68951;53.130;18.104;2023-11-19T03:50:45;101202.20;;;
79495;BMP180;68951;53.130;18.104;2023-11-19T03:53:12;101199.20;;;
79495;BMP180;68951;53.130;18.104;2023-11-19T03:55:39;101198.60;;;
79495;BMP180;68951;53.130;18.104;2023-11-19T03:58:06;101190.00;;;
79495;BMP180;68951;53.130;18.104;2023-11-19T04:00:33;101191.60;;;
79495;BMP180;68951;53.130;18.104;2023-11-19T04:02:59;101196.00;;;
79495;BMP180;68951;53.130;18.104;2023-11-19T04:05:27;101188.40;;;
79495;BMP180;68951;53.130;18.104;2023-11-19T04:07:53;101189.00;;;
79495;BMP180;68951;53.130;18.104;2023-11-19T04:10:20;101187.40;;;
79495;BMP180;68951;53.130;18.104;2023-11-19T04:12:49;101179.40;;;
79495;BMP180;68951;53.130;18.104;2023-11-19T04:15:15;101174.20;;;
79495;BMP180;68951;53.130;18.104;2023-11-19T04:17:42;101169.00;;;
79495;BMP180;68951;53.130;18.104;2023-11-19T04:20:10;101173.80;;;
79495;BMP180;68951;53.130;18.104;2023-11-19T04:22:39;101165.40;;;
79495;BMP180;68951;53.130;18.104;2023-11-19T04:25:07;101160.00;;;
79495;BMP180;68951;53.130;18.104;2023-11-19T04:27:35;101154.60;;;
79495;BMP180;68951;53.130;18.104;2023-11-19T04:30:02;101148.60;;;
79495;BMP180;68951;53.130;18.104;2023-11-19T04:32:30;101140.20;;;
79495;BMP180;68951;53.130;18.104;2023-11-19T04:34:57;101136.60;;;
79495;BMP180;68951;53.130;18.104;2023-11-19T04:37:24;101136.60;;;
79495;BMP180;68951;53.130;18.104;2023-11-19T04:39:51;101139.40;;;
79495;BMP180;68951;53.130;18.104;2023-11-19T04:42:17;101137.00;;;
79495;BMP180;68951;53.130;18.104;2023-11-19T04:44:44;101129.60;;;
79495;BMP180;68951;53.130;18.104;2023-11-19T04:47:11;101125.00;;;
79495;BMP180;68951;53.130;18.104;2023-11-19T04:49:41;101118.60;;;
79495;BMP180;68951;53.130;18.104;2023-11-19T04:52:11;101116.60;;;
79495;BMP180;68951;53.130;18.104;2023-11-19T04:54:44;101106.20;;;
79495;BMP180;68951;53.130;18.104;2023-11-19T04:57:11;101099.60;;;
79495;BMP180;68951;53.130;18.104;2023-11-19T04:59:38;101090.80;;;
79495;BMP180;68951;53.130;18.104;2023-11-19T05:02:05;101086.00;;;
79495;BMP180;68951;53.130;18.104;2023-11-19T05:04:32;101077.80;;;
79495;BMP180;68951;53.130;18.104;2023-11-19T05:06:59;101077.40;;;
79495;BMP180;68951;53.130;18.104;2023-11-19T05:09:25;101071.00;;;
79495;BMP180;68951;53.130;18.104;2023-11-19T05:11:52;101067.80;;;
79495;BMP180;68951;53.130;18.104;2023-11-19T05:14:20;101063.60;;;
79495;BMP180;68951;53.130;18.104;2023-11-19T05:16:48;101061.60;;;
79495;BMP180;68951;53.130;18.104;2023-11-19T05:19:14;101058.40;;;
79495;BMP180;68951;53.130;18.104;2023-11-19T05:21:42;101057.00;;;
79495;BMP180;68951;53.130;18.104;2023-11-19T05:24:10;101051.20;;;
79495;BMP180;68951;53.130;18.104;2023-11-19T05:26:38;101047.40;;;
79495;BMP180;68951;53.130;18.104;2023-11-19T05:29:05;101040.20;;;
79495;BMP180;68951;53.130;18.104;2023-11-19T05:31:32;101030.00;;;
79495;BMP180;68951;53.130;18.104;2023-11-19T05:33:59;101025.00;;;
79495;BMP180;68951;53.130;18.104;2023-11-19T05:36:25;101021.00;;;
79495;BMP180;68951;53.130;18.104;2023-11-19T05:38:54;101019.00;;;
79495;BMP180;68951;53.130;18.104;2023-11-19T05:41:21;101016.20;;;
79495;BMP180;68951;53.130;18.104;2023-11-19T05:43:48;101017.60;;;
79495;BMP180;68951;53.130;18.104;2023-11-19T05:46:14;101021.20;;;
79495;BMP180;68951;53.130;18.104;2023-11-19T05:48:41;101011.40;;;
79495;BMP180;68951;53.130;18.104;2023-11-19T05:51:08;101013.20;;;
79495;BMP180;68951;53.130;18.104;2023-11-19T05:53:35;101013.00;;;
79495;BMP180;68951;53.130;18.104;2023-11-19T05:56:01;101011.80;;;
79495;BMP180;68951;53.130;18.104;2023-11-19T05:58:30;101012.00;;;
79495;BMP180;68951;53.130;18.104;2023-11-19T06:00:58;101003.60;;;
79495;BMP180;68951;53.130;18.104;2023-11-19T06:03:27;101000.80;;;
79495;BMP180;68951;53.130;18.104;2023-11-19T06:05:54;100989.80;;;
79495;BMP180;68951;53.130;18.104;2023-11-19T06:08:21;100994.80;;;
79495;BMP180;68951;53.130;18.104;2023-11-19T06:10:47;100993.80;;;
79495;BMP180;68951;53.130;18.104;2023-11-19T06:13:17;100994.80;;;
79495;BMP180;68951;53.130;18.104;2023-11-19T06:15:44;100988.00;;;
79495;BMP180;68951;53.130;18.104;2023-11-19T06:18:11;100979.80;;;
79495;BMP180;68951;53.130;18.104;2023-11-19T06:20:41;100972.40;;;
79495;BMP180;68951;53.130;18.104;2023-11-19T06:23:07;100966.80;;;
79495;BMP180;68951;53.130;18.104;2023-11-19T06:25:34;100966.20;;;
79495;BMP180;68951;53.130;18.104;2023-11-19T06:28:02;100961.60;;;
79495;BMP180;68951;53.130;18.104;2023-11-19T06:30:29;100950.20;;;
79495;BMP180;68951;53.130;18.104;2023-11-19T06:32:58;100939.20;;;
79495;BMP180;68951;53.130;18.104;2023-11-19T06:35:25;100924.00;;;
79495;BMP180;68951;53.130;18.104;2023-11-19T06:37:51;100924.00;;;
79495;BMP180;68951;53.130;18.104;2023-11-19T06:40:18;100922.80;;;
79495;BMP180;68951;53.130;18.104;2023-11-19T06:42:45;100920.40;;;
79495;BMP180;68951;53.130;18.104;2023-11-19T06:45:12;100912.60;;;
79495;BMP180;68951;53.130;18.104;2023-11-19T06:47:39;100912.80;;;
79495;BMP180;68951;53.130;18.104;2023-11-19T06:50:06;100908.00;;;
79495;BMP180;68951;53.130;18.104;2023-11-19T06:52:33;100909.20;;;
79495;BMP180;68951;53.130;18.104;2023-11-19T06:55:00;100907.00;;;
79495;BMP180;68951;53.130;18.104;2023-11-19T06:57:27;100900.80;;;
79495;BMP180;68951;53.130;18.104;2023-11-19T06:59:57;100898.00;;;
79495;BMP180;68951;53.130;18.104;2023-11-19T07:02:24;100891.40;;;
79495;BMP180;68951;53.130;18.104;2023-11-19T07:04:51;100886.60;;;
79495;BMP180;68951;53.130;18.104;2023-11-19T07:07:18;100883.40;;;
79495;BMP180;68951;53.130;18.104;2023-11-19T07:09:46;100878.60;;;
79495;BMP180;68951;53.130;18.104;2023-11-19T07:12:14;100873.00;;;
79495;BMP180;68951;53.130;18.104;2023-11-19T07:14:41;100871.40;;;
79495;BMP180;68951;53.130;18.104;2023-11-19T07:17:08;100868.60;;;
79495;BMP180;68951;53.130;18.104;2023-11-19T07:19:36;100868.00;;;
79495;BMP180;68951;53.130;18.104;2023-11-19T07:22:06;100860.80;;;
79495;BMP180;68951;53.130;18.104;2023-11-19T07:24:33;100861.40;;;
79495;BMP180;68951;53.130;18.104;2023-11-19T07:27:00;100858.20;;;
79495;BMP180;68951;53.130;18.104;2023-11-19T07:29:29;100854.00;;;
79495;BMP180;68951;53.130;18.104;2023-11-19T07:31:58;100855.00;;;
79495;BMP180;68951;53.130;18.104;2023-11-19T07:34:24;100854.20;;;
79495;BMP180;68951;53.130;18.104;2023-11-19T07:36:52;100852.40;;;
79495;BMP180;68951;53.130;18.104;2023-11-19T07:39:19;100849.20;;;
79495;BMP180;68951;53.130;18.104;2023-11-19T07:41:48;100844.20;;;
79495;BMP180;68951;53.130;18.104;2023-11-19T07:44:16;100841.20;;;
79495;BMP180;68951;53.130;18.104;2023-11-19T07:46:43;100838.80;;;
79495;BMP180;68951;53.130;18.104;2023-11-19T07:49:11;100832.00;;;
79495;BMP180;68951;53.130;18.104;2023-11-19T07:51:38;100828.20;;;
79495;BMP180;68951;53.130;18.104;2023-11-19T07:54:05;100825.60;;;
79495;BMP180;68951;53.130;18.104;2023-11-19T07:56:33;100819.20;;;
79495;BMP180;68951;53.130;18.104;2023-11-19T07:59:03;100811.20;;;
79495;BMP180;68951;53.130;18.104;2023-11-19T08:01:30;100804.20;;;
79495;BMP180;68951;53.130;18.104;2023-11-19T08:03:57;100802.60;;;
79495;BMP180;68951;53.130;18.104;2023-11-19T08:06:24;100798.20;;;
79495;BMP180;68951;53.130;18.104;2023-11-19T08:08:51;100798.80;;;
79495;BMP180;68951;53.130;18.104;2023-11-19T08:11:18;100789.80;;;
79495;BMP180;68951;53.130;18.104;2023-11-19T08:13:46;100784.40;;;
79495;BMP180;68951;53.130;18.104;2023-11-19T08:16:13;100780.20;;;
79495;BMP180;68951;53.130;18.104;2023-11-19T08:18:43;100772.20;;;
79495;BMP180;68951;53.130;18.104;2023-11-19T08:21:10;100773.80;;;
79495;BMP180;68951;53.130;18.104;2023-11-19T08:23:37;100774.40;;;
79495;BMP180;68951;53.130;18.104;2023-11-19T08:26:05;100765.60;;;
79495;BMP180;68951;53.130;18.104;2023-11-19T08:28:32;100759.80;;;
79495;BMP180;68951;53.130;18.104;2023-11-19T08:31:01;100753.80;;;
79495;BMP180;68951;53.130;18.104;2023-11-19T08:33:30;100747.20;;;
79495;BMP180;68951;53.130;18.104;2023-11-19T08:35:57;100747.80;;;
79495;BMP180;68951;53.130;18.104;2023-11-19T08:38:25;100741.80;;;
79495;BMP180;68951;53.130;18.104;2023-11-19T08:40:52;100739.40;;;
79495;BMP180;68951;53.130;18.104;2023-11-19T08:43:19;100735.20;;;
79495;BMP180;68951;53.130;18.104;2023-11-19T08:45:46;100728.60;;;
79495;BMP180;68951;53.130;18.104;2023-11-19T08:48:13;100729.40;;;
79495;BMP180;68951;53.130;18.104;2023-11-19T08:50:39;100723.20;;;
79495;BMP180;68951;53.130;18.104;2023-11-19T08:53:06;100714.80;;;
79495;BMP180;68951;53.130;18.104;2023-11-19T08:55:33;100705.20;;;
79495;BMP180;68951;53.130;18.104;2023-11-19T08:58:00;100698.20;;;
79495;BMP180;68951;53.130;18.104;2023-11-19T09:00:27;100693.00;;;
79495;BMP180;68951;53.130;18.104;2023-11-19T09:02:54;100693.00;;;
79495;BMP180;68951;53.130;18.104;2023-11-19T09:05:21;100686.80;;;
79495;BMP180;68951;53.130;18.104;2023-11-19T09:07:47;100688.40;;;
79495;BMP180;68951;53.130;18.104;2023-11-19T09:10:16;100685.60;;;
79495;BMP180;68951;53.130;18.104;2023-11-19T09:12:43;100681.00;;;
79495;BMP180;68951;53.130;18.104;2023-11-19T09:15:10;100682.00;;;
79495;BMP180;68951;53.130;18.104;2023-11-19T09:17:39;100680.60;;;
79495;BMP180;68951;53.130;18.104;2023-11-19T09:20:08;100676.20;;;
79495;BMP180;68951;53.130;18.104;2023-11-19T09:22:35;100671.20;;;
79495;BMP180;68951;53.130;18.104;2023-11-19T09:25:01;100664.00;;;
79495;BMP180;68951;53.130;18.104;2023-11-19T09:27:28;100663.40;;;
79495;BMP180;68951;53.130;18.104;2023-11-19T09:29:55;100656.40;;;
79495;BMP180;68951;53.130;18.104;2023-11-19T09:32:24;100653.00;;;
79495;BMP180;68951;53.130;18.104;2023-11-19T09:34:51;100642.80;;;
79495;BMP180;68951;53.130;18.104;2023-11-19T09:37:18;100631.60;;;
79495;BMP180;68951;53.130;18.104;2023-11-19T09:39:45;100628.80;;;
79495;BMP180;68951;53.130;18.104;2023-11-19T09:42:12;100624.00;;;
79495;BMP180;68951;53.130;18.104;2023-11-19T09:44:42;100615.00;;;
79495;BMP180;68951;53.130;18.104;2023-11-19T09:47:11;100611.20;;;
79495;BMP180;68951;53.130;18.104;2023-11-19T09:49:39;100598.20;;;
79495;BMP180;68951;53.130;18.104;2023-11-19T09:52:06;100594.40;;;
79495;BMP180;68951;53.130;18.104;2023-11-19T09:54:33;100590.20;;;
79495;BMP180;68951;53.130;18.104;2023-11-19T09:57:02;100583.40;;;
79495;BMP180;68951;53.130;18.104;2023-11-19T09:59:33;100575.40;;;
79495;BMP180;68951;53.130;18.104;2023-11-19T10:02:00;100575.60;;;
79495;BMP180;68951;53.130;18.104;2023-11-19T10:04:30;100570.60;;;
79495;BMP180;68951;53.130;18.104;2023-11-19T10:06:57;100565.60;;;
79495;BMP180;68951;53.130;18.104;2023-11-19T10:09:24;100563.60;;;
79495;BMP180;68951;53.130;18.104;2023-11-19T10:11:51;100550.80;;;
79495;BMP180;68951;53.130;18.104;2023-11-19T10:14:23;100541.40;;;
79495;BMP180;68951;53.130;18.104;2023-11-19T10:16:49;100534.80;;;
79495;BMP180;68951;53.130;18.104;2023-11-19T10:19:20;100533.20;;;
79495;BMP180;68951;53.130;18.104;2023-11-19T10:21:47;100529.80;;;
79495;BMP180;68951;53.130;18.104;2023-11-19T10:24:14;100525.60;;;
79495;BMP180;68951;53.130;18.104;2023-11-19T10:26:41;100521.00;;;
79495;BMP180;68951;53.130;18.104;2023-11-19T10:29:13;100521.20;;;
79495;BMP180;68951;53.130;18.104;2023-11-19T10:31:55;100519.20;;;
79495;BMP180;68951;53.130;18.104;2023-11-19T10:34:27;100511.60;;;
79495;BMP180;68951;53.130;18.104;2023-11-19T10:36:54;100515.20;;;
79495;BMP180;68951;53.130;18.104;2023-11-19T10:39:21;100513.00;;;
79495;BMP180;68951;53.130;18.104;2023-11-19T10:41:49;100511.80;;;
79495;BMP180;68951;53.130;18.104;2023-11-19T10:44:34;100509.80;;;
79495;BMP180;68951;53.130;18.104;2023-11-19T10:47:08;100502.80;;;
79495;BMP180;68951;53.130;18.104;2023-11-19T10:49:35;100494.40;;;
79495;BMP180;68951;53.130;18.104;2023-11-19T10:52:03;100493.80;;;
79495;BMP180;68951;53.130;18.104;2023-11-19T10:54:32;100493.40;;;
79495;BMP180;68951;53.130;18.104;2023-11-19T10:57:02;100488.60;;;
79495;BMP180;68951;53.130;18.104;2023-11-19T10:59:31;100480.60;;;
79495;BMP180;68951;53.130;18.104;2023-11-19T11:02:03;100485.20;;;
79495;BMP180;68951;53.130;18.104;2023-11-19T11:04:39;100482.20;;;
79495;BMP180;68951;53.130;18.104;2023-11-19T11:07:09;100475.40;;;
79495;BMP180;68951;53.130;18.104;2023-11-19T11:09:36;100470.20;;;
79495;BMP180;68951;53.130;18.104;2023-11-19T11:12:04;100467.60;;;
79495;BMP180;68951;53.130;18.104;2023-11-19T11:14:34;100465.20;;;
79495;BMP180;68951;53.130;18.104;2023-11-19T11:17:03;100458.20;;;
79495;BMP180;68951;53.130;18.104;2023-11-19T11:19:30;100444.00;;;
79495;BMP180;68951;53.130;18.104;2023-11-19T11:21:58;100440.20;;;
79495;BMP180;68951;53.130;18.104;2023-11-19T11:27:48;100428.60;;;
79495;BMP180;68951;53.130;18.104;2023-11-19T11:33:44;100413.60;;;
79495;BMP180;68951;53.130;18.104;2023-11-19T11:36:21;100409.80;;;
79495;BMP180;68951;53.130;18.104;2023-11-19T11:38:49;100408.60;;;
79495;BMP180;68951;53.130;18.104;2023-11-19T11:41:18;100396.00;;;
79495;BMP180;68951;53.130;18.104;2023-11-19T11:43:50;100389.60;;;
79495;BMP180;68951;53.130;18.104;2023-11-19T11:49:07;100368.40;;;
79495;BMP180;68951;53.130;18.104;2023-11-19T11:54:25;100356.20;;;
79495;BMP180;68951;53.130;18.104;2023-11-19T11:59:43;100348.80;;;
79495;BMP180;68951;53.130;18.104;2023-11-19T12:02:12;100345.40;;;
79495;BMP180;68951;53.130;18.104;2023-11-19T12:04:40;100343.20;;;
79495;BMP180;68951;53.130;18.104;2023-11-19T12:07:19;100336.60;;;
79495;BMP180;68951;53.130;18.104;2023-11-19T12:10:17;100334.20;;;
79495;BMP180;68951;53.130;18.104;2023-11-19T12:12:48;100325.00;;;
79495;BMP180;68951;53.130;18.104;2023-11-19T12:15:15;100322.60;;;
79495;BMP180;68951;53.130;18.104;2023-11-19T12:17:49;100317.80;;;
79495;BMP180;68951;53.130;18.104;2023-11-19T12:20:22;100310.40;;;
79495;BMP180;68951;53.130;18.104;2023-11-19T12:22:52;100292.00;;;
79495;BMP180;68951;53.130;18.104;2023-11-19T12:25:19;100279.60;;;
79495;BMP180;68951;53.130;18.104;2023-11-19T12:27:49;100276.00;;;
79495;BMP180;68951;53.130;18.104;2023-11-19T12:30:24;100273.00;;;
79495;BMP180;68951;53.130;18.104;2023-11-19T12:32:52;100259.40;;;
79495;BMP180;68951;53.130;18.104;2023-11-19T12:35:23;100258.00;;;
79495;BMP180;68951;53.130;18.104;2023-11-19T12:37:51;100267.40;;;
79495;BMP180;68951;53.130;18.104;2023-11-19T12:40:24;100264.80;;;
79495;BMP180;68951;53.130;18.104;2023-11-19T12:42:52;100252.00;;;
79495;BMP180;68951;53.130;18.104;2023-11-19T12:45:20;100252.80;;;
79495;BMP180;68951;53.130;18.104;2023-11-19T12:47:50;100262.80;;;
79495;BMP180;68951;53.130;18.104;2023-11-19T12:50:50;100284.80;;;
79495;BMP180;68951;53.130;18.104;2023-11-19T12:53:19;100289.00;;;
79495;BMP180;68951;53.130;18.104;2023-11-19T12:55:46;100279.20;;;
79495;BMP180;68951;53.130;18.104;2023-11-19T12:58:36;100258.40;;;
79495;BMP180;68951;53.130;18.104;2023-11-19T13:01:06;100240.40;;;
79495;BMP180;68951;53.130;18.104;2023-11-19T13:03:36;100240.60;;;
79495;BMP180;68951;53.130;18.104;2023-11-19T13:06:11;100240.00;;;
79495;BMP180;68951;53.130;18.104;2023-11-19T13:08:41;100243.00;;;
79495;BMP180;68951;53.130;18.104;2023-11-19T13:11:11;100236.80;;;
79495;BMP180;68951;53.130;18.104;2023-11-19T13:14:04;100235.60;;;
79495;BMP180;68951;53.130;18.104;2023-11-19T13:16:32;100232.80;;;
79495;BMP180;68951;53.130;18.104;2023-11-19T13:18:59;100226.80;;;
79495;BMP180;68951;53.130;18.104;2023-11-19T13:21:26;100223.00;;;
79495;BMP180;68951;53.130;18.104;2023-11-19T13:23:53;100224.00;;;
79495;BMP180;68951;53.130;18.104;2023-11-19T13:26:20;100219.80;;;
79495;BMP180;68951;53.130;18.104;2023-11-19T13:28:47;100220.60;;;
79495;BMP180;68951;53.130;18.104;2023-11-19T13:31:13;100223.40;;;
79495;BMP180;68951;53.130;18.104;2023-11-19T13:33:41;100222.80;;;
79495;BMP180;68951;53.130;18.104;2023-11-19T13:36:09;100223.00;;;
79495;BMP180;68951;53.130;18.104;2023-11-19T13:38:36;100214.60;;;
79495;BMP180;68951;53.130;18.104;2023-11-19T13:41:04;100217.00;;;
79495;BMP180;68951;53.130;18.104;2023-11-19T13:43:32;100209.40;;;
79495;BMP180;68951;53.130;18.104;2023-11-19T13:45:59;100202.20;;;
79495;BMP180;68951;53.130;18.104;2023-11-19T13:48:26;100193.80;;;
79495;BMP180;68951;53.130;18.104;2023-11-19T13:50:56;100190.80;;;
79495;BMP180;68951;53.130;18.104;2023-11-19T13:53:23;100188.20;;;
79495;BMP180;68951;53.130;18.104;2023-11-19T13:55:50;100189.60;;;
79495;BMP180;68951;53.130;18.104;2023-11-19T13:58:17;100184.20;;;
79495;BMP180;68951;53.130;18.104;2023-11-19T14:00:44;100176.80;;;
79495;BMP180;68951;53.130;18.104;2023-11-19T14:03:11;100168.40;;;
79495;BMP180;68951;53.130;18.104;2023-11-19T14:05:39;100166.40;;;
79495;BMP180;68951;53.130;18.104;2023-11-19T14:08:08;100159.40;;;
79495;BMP180;68951;53.130;18.104;2023-11-19T14:10:40;100155.20;;;
79495;BMP180;68951;53.130;18.104;2023-11-19T14:13:07;100153.20;;;
79495;BMP180;68951;53.130;18.104;2023-11-19T14:15:35;100149.60;;;
79495;BMP180;68951;53.130;18.104;2023-11-19T14:18:02;100146.00;;;
79495;BMP180;68951;53.130;18.104;2023-11-19T14:20:29;100137.80;;;
79495;BMP180;68951;53.130;18.104;2023-11-19T14:22:56;100133.40;;;
79495;BMP180;68951;53.130;18.104;2023-11-19T14:25:23;100132.00;;;
79495;BMP180;68951;53.130;18.104;2023-11-19T14:27:50;100128.40;;;
79495;BMP180;68951;53.130;18.104;2023-11-19T14:30:17;100127.40;;;
79495;BMP180;68951;53.130;18.104;2023-11-19T14:32:45;100119.80;;;
79495;BMP180;68951;53.130;18.104;2023-11-19T14:35:14;100117.40;;;
79495;BMP180;68951;53.130;18.104;2023-11-19T14:37:41;100111.20;;;
79495;BMP180;68951;53.130;18.104;2023-11-19T14:40:08;100100.40;;;
79495;BMP180;68951;53.130;18.104;2023-11-19T14:42:37;100091.00;;;
79495;BMP180;68951;53.130;18.104;2023-11-19T14:45:08;100084.40;;;
79495;BMP180;68951;53.130;18.104;2023-11-19T14:47:38;100086.80;;;
79495;BMP180;68951;53.130;18.104;2023-11-19T14:50:07;100078.80;;;
79495;BMP180;68951;53.130;18.104;2023-11-19T14:52:36;100085.20;;;
79495;BMP180;68951;53.130;18.104;2023-11-19T14:55:04;100093.20;;;
79495;BMP180;68951;53.130;18.104;2023-11-19T14:57:32;100097.60;;;
79495;BMP180;68951;53.130;18.104;2023-11-19T15:00:01;100106.20;;;
79495;BMP180;68951;53.130;18.104;2023-11-19T15:02:33;100112.80;;;
79495;BMP180;68951;53.130;18.104;2023-11-19T15:05:00;100111.60;;;
79495;BMP180;68951;53.130;18.104;2023-11-19T15:07:27;100109.60;;;
79495;BMP180;68951;53.130;18.104;2023-11-19T15:09:55;100107.20;;;